Tuesday, November 21, 2017, 10:41 AM EST
Back to Local

KCXY, Harrisburg Capital City

Location: New Cumberland, PA, United States Lat: 40.217
Local Time: 10:41 AM EST (15:41 GMT) Lon: -76.85
Time Zone: US/Eastern Elev: 347 ft

Show me the last for .
Show Coded

Time T Td Feel RH Dir Speed Gust Alt SLP Vis Weather Sky Remarks
2017-11-21 09:56 43 27 41 52 50° 3 - 30.10 30.11 10 CLR None
2017-11-21 08:56 39 28 - 64 - Calm - 30.11 30.12 10 CLR None
2017-11-21 07:56 31 24 - 75 - Calm - 30.10 30.11 10 CLR None
2017-11-21 06:56 28 22 - 77 - Calm - 30.09 30.10 10 CLR 6-hr Min Temp (7am): 28.0°F
6-hr Max Temp (7am): 35.1°F
2017-11-21 05:56 29 23 25 78 240° 3 - 30.09 30.11 10 CLR None
2017-11-21 04:56 28 22 - 77 - Calm - 30.08 30.09 10 CLR None
2017-11-21 03:56 32 23 - 68 - Calm - 30.09 30.10 10 CLR None
2017-11-21 02:56 32 24 - 72 - Calm - 30.10 30.11 10 CLR None
2017-11-21 01:56 33 23 - 66 - Calm - 30.10 30.11 10 CLR None
2017-11-21 00:56 35 23 - 61 - Calm - 30.11 30.12 10 CLR 6-hr Min Temp (1am): 30.9°F
6-hr Max Temp (1am): 44.1°F
2017-11-20 23:56 33 23 - 66 - Calm - 30.12 30.14 10 CLR 24-hr Min Temp (12am): 32.0°F
24-hr Max Temp (12am): 48.0°F
2017-11-20 22:56 33 25 - 71 - Calm - 30.12 30.14 10 CLR None
2017-11-20 21:56 35 24 - 63 - Calm - 30.13 30.14 10 CLR None
2017-11-20 20:56 37 24 - 59 - Calm - 30.13 30.14 10 CLR None
2017-11-20 19:56 43 20 41 39 280° 3 - 30.12 30.13 10 CLR None
2017-11-20 18:56 44 20 42 37 260° 5 - 30.12 30.13 10 CLR 6-hr Min Temp (7pm): 43.0°F
6-hr Max Temp (7pm): 48.0°F
2017-11-20 17:56 44 21 40 39 220° 7 - 30.12 30.13 10 CLR None
2017-11-20 16:56 45 21 40 38 220° 10 - 30.11 30.12 10 CLR None
2017-11-20 15:56 48 21 43 34 240° 12 - 30.12 30.13 10 CLR None
2017-11-20 14:56 48 20 41 32 260° 15 22 30.11 30.11 10 CLR None
2017-11-20 13:56 48 20 41 32 250° 15 21 30.11 30.11 10 CLR None
2017-11-20 12:56 46 20 40 35 250° 14 - 30.11 30.12 10 CLR 6-hr Min Temp (1pm): 37.0°F
6-hr Max Temp (1pm): 46.0°F
2017-11-20 11:56 44 22 39 41 230° 10 - 30.12 30.13 10 CLR None
2017-11-20 10:56 44 21 35 39 300° 13 24 30.13 30.14 10 FEW045 None

Support USWX by starting your Amazon purchase here.